Greenbush, Kansas
Current Conditions -  °F | °C
As of 2:15 PM on Wednesday 26 Nov 2014 (Local Time) from KPTS Reporting Station
Overcast Overcast  
Wind Chill: 45°   Ceiling: 6000
Heat Index: 49°   Visibility: 10mi
Dew Point: 29°   Wind: 10mph
Humidity: 46%   Direction: 300°WNW
Pressure: 30.08"   Gusts: 20mph
Location:  37.5057°N, 94.9338°W
Report Text: KPTS 262015Z AUTO 30009G17KT 270V330 10SM OVC060 09/M02 A3008 RMK AO2 T00941017
Loading
Personal Weather Stations






























Interactive Weather Map New forecast layout! Learn more

10-Day Weather Forecast

Advertisements
Track Severe Weather on mobile